Terminal Aerodrome Forecast
Issued by NWS

Home | Current Version | Previous Version | Text Only | Print | Product List | Glossary On
Versions: 1 2 3 4 5 6 7 8 9 10 11 12 13 14 15 16 17 18 19
000
FTUS43 KTOP 160500
TAFFOE
TAF
KFOE 160520Z 1606/1706 18017G24KT P6SM BKN200
     FM161300 20022G32KT P6SM BKN200
     FM170200 36015G20KT P6SM BKN080=

USA.gov is the U.S. government's official web portal to all federal, state and local government web resources and services.